createdAt,value
2022-12-24T00:02:34.865Z,47.22
2022-12-24T00:05:16.982Z,51.38
2022-12-24T00:08:05.725Z,52.10
2022-12-24T00:10:59.031Z,50.20
2022-12-24T00:13:41.690Z,49.35
2022-12-24T00:16:30.874Z,45.67
2022-12-24T00:19:19.677Z,46.78
2022-12-24T00:22:01.843Z,49.10
2022-12-24T00:24:50.741Z,48.75
2022-12-24T00:27:39.659Z,51.85
2022-12-24T00:30:28.691Z,49.15
2022-12-24T00:33:11.540Z,50.22
2022-12-24T00:36:02.189Z,51.42
2022-12-24T00:38:44.536Z,53.45
2022-12-24T00:41:32.971Z,57.55
2022-12-24T00:44:19.681Z,55.42
2022-12-24T00:47:11.978Z,54.25
2022-12-24T00:49:54.676Z,52.15
2022-12-24T00:52:37.021Z,53.15
2022-12-24T00:55:25.631Z,49.63
2022-12-24T00:58:20.518Z,49.28
2022-12-24T01:01:09.681Z,47.67
2022-12-24T01:03:58.688Z,49.17
2022-12-24T01:06:41.072Z,45.53
2022-12-24T01:09:29.616Z,43.25
2022-12-24T01:12:18.585Z,43.97
2022-12-24T01:15:07.536Z,44.63
2022-12-24T01:17:55.944Z,47.88
2022-12-24T01:20:40.535Z,46.30
2022-12-24T01:23:28.969Z,43.70
2022-12-24T01:26:12.711Z,42.45
2022-12-24T01:28:55.408Z,47.42
2022-12-24T01:31:44.738Z,48.53
2022-12-24T01:34:33.997Z,48.72
2022-12-24T01:37:15.742Z,46.78
2022-12-24T01:40:17.662Z,47.63
2022-12-24T01:43:25.548Z,50.33
2022-12-24T01:46:40.631Z,49.35
2022-12-24T01:49:24.987Z,53.72
2022-12-24T01:52:18.702Z,53.55
2022-12-24T01:55:24.659Z,50.42
2022-12-24T01:58:22.749Z,48.15
2022-12-24T02:01:06.023Z,47.13
2022-12-24T02:03:54.740Z,47.17
2022-12-24T02:06:43.571Z,48.38
2022-12-24T02:09:32.599Z,46.85
2022-12-24T02:12:21.554Z,48.58
2022-12-24T02:15:11.649Z,47.25
2022-12-24T02:18:08.506Z,47.47
2022-12-24T02:21:15.695Z,44.55
2022-12-24T02:24:31.694Z,43.50
2022-12-24T02:27:24.971Z,41.75
2022-12-24T02:30:50.180Z,39.35
2022-12-24T02:33:54.886Z,38.47
2022-12-24T02:40:01.157Z,38.38
2022-12-24T02:42:52.694Z,36.78
2022-12-24T02:45:39.986Z,38.17
2022-12-24T02:48:30.653Z,38.85
2022-12-24T02:51:18.968Z,43.72
2022-12-24T02:54:07.655Z,38.78
2022-12-24T02:57:06.500Z,39.58
2022-12-24T03:00:10.634Z,37.70
2022-12-24T03:03:26.922Z,39.40
2022-12-24T03:06:29.599Z,37.97
2022-12-24T03:09:42.908Z,39.50
2022-12-24T03:12:38.652Z,39.35
2022-12-24T03:15:25.274Z,39.40
2022-12-24T03:18:17.642Z,40.75
2022-12-24T03:21:09.030Z,40.95
2022-12-24T03:23:58.660Z,39.00
2022-12-24T03:26:48.920Z,39.05
2022-12-24T03:29:30.479Z,40.03
2022-12-24T03:32:12.809Z,42.20
2022-12-24T03:35:01.659Z,41.25
2022-12-24T03:37:43.808Z,39.72
2022-12-24T03:40:32.557Z,40.47
2022-12-24T03:43:20.907Z,40.72
2022-12-24T03:46:03.645Z,37.72
2022-12-24T03:48:51.893Z,40.38
2022-12-24T03:51:34.646Z,42.30
2022-12-24T03:54:22.999Z,45.92
2022-12-24T03:57:05.656Z,46.92
2022-12-24T04:00:00.525Z,45.58
2022-12-24T04:02:51.945Z,45.50
2022-12-24T04:05:40.562Z,43.90
2022-12-24T04:08:28.857Z,44.05
2022-12-24T04:11:13.692Z,46.22
2022-12-24T04:13:55.802Z,46.15
2022-12-24T04:16:44.800Z,46.88
2022-12-24T04:19:27.002Z,46.42
2022-12-24T04:22:15.472Z,48.25
2022-12-24T04:24:57.809Z,40.85
2022-12-24T04:27:46.622Z,45.75
2022-12-24T04:30:28.869Z,49.75
2022-12-24T04:33:17.578Z,53.72
2022-12-24T04:36:06.895Z,54.40
2022-12-24T04:38:49.892Z,51.42
2022-12-24T04:41:37.893Z,52.88
2022-12-24T04:44:19.685Z,52.03
2022-12-24T04:47:07.853Z,54.75
2022-12-24T04:49:50.533Z,57.63
2022-12-24T04:52:39.620Z,63.88
2022-12-24T04:55:21.922Z,71.13
2022-12-24T04:58:10.625Z,78.85
2022-12-24T05:00:59.958Z,85.82
2022-12-24T05:03:42.631Z,81.03
2022-12-24T05:06:34.931Z,82.35
2022-12-24T05:09:17.549Z,83.55
2022-12-24T05:12:06.595Z,83.50
2022-12-24T05:14:48.912Z,80.60
2022-12-24T05:17:37.590Z,83.32
2022-12-24T05:20:20.038Z,80.28
2022-12-24T05:23:26.596Z,78.65
2022-12-24T05:26:30.857Z,71.57
2022-12-24T05:29:20.496Z,69.43
2022-12-24T05:32:03.068Z,67.70
2022-12-24T05:34:51.671Z,64.90
2022-12-24T05:37:33.837Z,65.05
2022-12-24T05:40:22.626Z,61.80
2022-12-24T05:43:04.896Z,60.25
2022-12-24T05:45:53.635Z,56.63
2022-12-24T05:48:35.851Z,59.25
2022-12-24T05:51:29.543Z,59.78
2022-12-24T05:57:00.556Z,54.97
2022-12-24T05:59:49.466Z,57.65
2022-12-24T06:02:37.887Z,58.22
2022-12-24T06:05:20.602Z,56.95
2022-12-24T06:08:08.979Z,57.08
2022-12-24T06:10:51.602Z,54.97
2022-12-24T06:13:34.257Z,55.85
2022-12-24T06:16:28.685Z,58.83
2022-12-24T06:19:10.742Z,59.90
2022-12-24T06:21:59.549Z,64.70
2022-12-24T06:24:48.538Z,59.13
2022-12-24T06:27:31.015Z,69.45
2022-12-24T06:30:19.652Z,68.22
2022-12-24T06:33:02.054Z,74.07
2022-12-24T06:35:50.504Z,73.35
2022-12-24T06:38:39.517Z,71.80
2022-12-24T06:41:29.492Z,71.85
2022-12-24T06:44:18.948Z,72.10
2022-12-24T06:47:06.911Z,74.70
2022-12-24T06:49:48.602Z,75.65
2022-12-24T06:52:37.635Z,71.22
2022-12-24T06:55:26.630Z,79.35
2022-12-24T06:58:21.485Z,73.78
2022-12-24T07:01:14.964Z,79.65
2022-12-24T07:03:57.541Z,76.07
2022-12-24T07:06:45.866Z,77.13
2022-12-24T07:09:27.573Z,75.75
2022-12-24T07:12:10.090Z,73.05
2022-12-24T07:14:58.548Z,72.53
2022-12-24T07:17:49.579Z,74.07
2022-12-24T07:20:32.072Z,75.30
2022-12-24T07:23:20.577Z,78.38
2022-12-24T07:26:03.702Z,79.22
2022-12-24T07:28:52.525Z,74.57
2022-12-24T07:31:35.153Z,74.68
2022-12-24T07:34:23.611Z,75.20
2022-12-24T07:37:05.839Z,76.05
2022-12-24T07:39:54.573Z,82.00
2022-12-24T07:42:37.253Z,84.20
2022-12-24T07:45:26.903Z,84.95
2022-12-24T07:48:08.849Z,73.32
2022-12-24T07:50:58.627Z,75.57
2022-12-24T07:53:41.201Z,72.25
2022-12-24T07:56:29.481Z,75.72
2022-12-24T07:59:28.660Z,75.60
2022-12-24T08:02:19.174Z,80.22
2022-12-24T08:05:01.593Z,88.00
2022-12-24T08:07:51.004Z,80.97
2022-12-24T08:10:33.477Z,81.68
2022-12-24T08:13:23.693Z,80.53
2022-12-24T08:16:07.045Z,82.07
2022-12-24T08:18:55.675Z,87.97
2022-12-24T08:21:37.884Z,86.35
2022-12-24T08:24:26.597Z,82.35
2022-12-24T08:27:08.908Z,82.80
2022-12-24T08:29:57.474Z,80.70
2022-12-24T08:32:47.639Z,83.93
2022-12-24T08:35:37.035Z,81.50
2022-12-24T08:38:19.444Z,82.80
2022-12-24T08:41:09.206Z,89.13
2022-12-24T08:43:58.538Z,86.40
2022-12-24T08:46:47.529Z,89.05
2022-12-24T08:49:36.600Z,85.45
2022-12-24T08:52:18.952Z,86.35
2022-12-24T08:55:07.580Z,86.03
2022-12-24T08:57:50.030Z,85.90
2022-12-24T09:00:39.542Z,87.13
2022-12-24T09:03:27.373Z,84.25
2022-12-24T09:06:17.629Z,77.53
2022-12-24T09:08:59.963Z,84.75
2022-12-24T09:11:48.708Z,88.90
2022-12-24T09:14:31.000Z,90.05
2022-12-24T09:17:20.571Z,85.43
2022-12-24T09:20:03.066Z,83.32
2022-12-24T09:22:51.659Z,82.95
2022-12-24T09:25:33.794Z,87.93
2022-12-24T09:28:22.561Z,80.03
2022-12-24T09:31:10.323Z,80.47
2022-12-24T09:33:59.592Z,78.50
2022-12-24T09:36:49.493Z,79.75
2022-12-24T09:39:31.773Z,80.40
2022-12-24T09:42:39.555Z,81.53
2022-12-24T09:45:31.451Z,78.80
2022-12-24T09:48:31.419Z,78.65
2022-12-24T09:51:37.829Z,77.60
2022-12-24T09:54:49.274Z,72.45
2022-12-24T09:57:45.455Z,71.13
2022-12-24T10:00:52.350Z,70.35
2022-12-24T10:03:41.511Z,63.75
2022-12-24T10:06:35.956Z,65.40
2022-12-24T10:09:42.564Z,70.40
2022-12-24T10:13:07.248Z,69.82
2022-12-24T10:16:15.643Z,68.00
2022-12-24T10:19:09.975Z,69.07
2022-12-24T10:22:12.552Z,69.85
2022-12-24T10:25:45.586Z,67.07
2022-12-24T10:28:50.420Z,67.47
2022-12-24T10:31:45.489Z,64.07
2022-12-24T10:34:41.453Z,65.53
2022-12-24T10:37:31.893Z,64.60
2022-12-24T10:40:43.412Z,62.75
2022-12-24T10:43:42.496Z,64.18
2022-12-24T10:46:40.931Z,59.97
2022-12-24T10:49:33.576Z,60.45
2022-12-24T10:52:36.814Z,58.85
2022-12-24T10:55:27.614Z,58.28
2022-12-24T10:58:18.309Z,54.92
2022-12-24T11:01:09.109Z,54.40
2022-12-24T11:04:31.985Z,52.08
2022-12-24T11:07:26.539Z,51.35
2022-12-24T11:10:16.572Z,52.67
2022-12-24T11:13:35.129Z,49.67
2022-12-24T11:16:32.693Z,49.35
2022-12-24T11:19:25.888Z,49.40
2022-12-24T11:22:38.450Z,48.67
2022-12-24T11:25:40.562Z,46.92
2022-12-24T11:28:35.568Z,46.78
2022-12-24T11:31:30.346Z,46.80
2022-12-24T11:34:45.499Z,49.53
2022-12-24T11:37:32.878Z,48.22
2022-12-24T11:40:34.476Z,47.70
2022-12-24T11:43:45.334Z,53.42
2022-12-24T11:46:45.666Z,51.70
2022-12-24T11:49:37.526Z,46.55
2022-12-24T11:52:20.099Z,49.53
2022-12-24T11:55:16.346Z,49.90
2022-12-24T11:58:12.381Z,48.35
2022-12-24T12:01:17.703Z,51.13
2022-12-24T12:04:04.948Z,49.33
2022-12-24T12:07:15.109Z,48.70
2022-12-24T12:10:15.814Z,47.75
2022-12-24T12:13:27.485Z,50.42
2022-12-24T12:16:56.695Z,49.78
2022-12-24T12:19:46.575Z,50.75
2022-12-24T12:22:48.587Z,49.60
2022-12-24T12:25:40.910Z,49.78
2022-12-24T12:28:32.571Z,49.75
2022-12-24T12:31:31.879Z,49.22
2022-12-24T12:34:23.437Z,49.20
2022-12-24T12:37:14.848Z,48.83
2022-12-24T12:40:04.641Z,50.83
2022-12-24T12:43:13.910Z,48.90
2022-12-24T12:46:06.481Z,49.10
2022-12-24T12:49:06.034Z,49.13
2022-12-24T12:51:50.797Z,50.15
2022-12-24T12:55:23.915Z,48.38
2022-12-24T12:58:12.549Z,46.05
2022-12-24T13:01:07.885Z,49.03
2022-12-24T13:03:59.525Z,51.33
2022-12-24T13:07:12.732Z,49.10
2022-12-24T13:10:22.541Z,54.13
2022-12-24T13:13:35.060Z,51.75
2022-12-24T13:16:46.649Z,48.95
2022-12-24T13:20:11.968Z,48.97
2022-12-24T13:23:18.483Z,50.03
2022-12-24T13:26:21.066Z,50.58
2022-12-24T13:29:02.461Z,47.03
2022-12-24T13:31:44.734Z,46.63
2022-12-24T13:34:52.409Z,46.55
2022-12-24T13:37:41.837Z,48.28
2022-12-24T13:40:34.468Z,51.03
2022-12-24T13:43:22.843Z,50.78
2022-12-24T13:46:06.611Z,49.05
2022-12-24T13:48:54.778Z,48.22
2022-12-24T13:51:37.576Z,49.58
2022-12-24T13:54:32.773Z,48.83
2022-12-24T13:57:55.481Z,48.38
2022-12-24T14:00:46.869Z,47.38
2022-12-24T14:03:50.405Z,49.90
2022-12-24T14:09:32.580Z,48.25
2022-12-24T14:12:17.548Z,48.78
2022-12-24T14:15:08.462Z,49.85
2022-12-24T14:17:57.789Z,46.83
2022-12-24T14:20:41.530Z,48.55
2022-12-24T14:23:33.747Z,48.72
2022-12-24T14:26:29.845Z,49.20
2022-12-24T14:29:34.917Z,49.58
2022-12-24T14:32:25.413Z,47.78
2022-12-24T14:35:21.595Z,49.88
2022-12-24T14:38:09.833Z,48.00
2022-12-24T14:41:29.413Z,48.70
2022-12-24T14:44:38.827Z,47.55
2022-12-24T14:47:51.619Z,47.90
2022-12-24T14:50:59.851Z,49.30
2022-12-24T14:54:03.548Z,49.45
2022-12-24T14:56:51.798Z,47.63
2022-12-24T14:59:36.469Z,47.70
2022-12-24T15:02:58.508Z,50.78
2022-12-24T15:05:40.764Z,51.33
2022-12-24T15:08:39.459Z,49.45
2022-12-24T15:11:28.754Z,51.38
2022-12-24T15:14:20.508Z,51.75
2022-12-24T15:17:11.899Z,52.13
2022-12-24T15:20:01.529Z,53.13
2022-12-24T15:22:44.346Z,50.70
2022-12-24T15:25:39.353Z,52.08
2022-12-24T15:28:30.819Z,52.08
2022-12-24T15:31:21.552Z,52.00
2022-12-24T15:34:05.831Z,52.15
2022-12-24T15:36:54.354Z,54.75
2022-12-24T15:39:37.703Z,52.40
2022-12-24T15:42:34.442Z,53.15
2022-12-24T15:45:28.747Z,54.60
2022-12-24T15:51:10.773Z,57.78
2022-12-24T15:53:53.474Z,55.33
2022-12-24T15:56:44.917Z,57.28
2022-12-24T15:59:29.441Z,58.78
2022-12-24T16:02:50.576Z,59.28
2022-12-24T16:05:35.804Z,57.05
2022-12-24T16:08:24.511Z,57.80
2022-12-24T16:11:34.796Z,59.00
2022-12-24T16:14:28.445Z,61.80
2022-12-24T16:20:02.403Z,60.58
2022-12-24T16:22:46.753Z,60.40
2022-12-24T16:25:36.509Z,61.80
2022-12-24T16:28:23.564Z,59.95
2022-12-24T16:31:12.491Z,63.63
2022-12-24T16:33:55.800Z,65.70
2022-12-24T16:36:44.461Z,67.88
2022-12-24T16:39:33.719Z,64.28
2022-12-24T16:42:40.467Z,64.13
2022-12-24T16:45:28.752Z,64.05
2022-12-24T16:48:14.486Z,62.67
2022-12-24T16:51:03.384Z,63.28
2022-12-24T16:53:45.840Z,63.78
2022-12-24T16:56:34.373Z,63.20
2022-12-24T16:59:28.784Z,66.10
2022-12-24T17:02:21.857Z,63.28
2022-12-24T17:05:10.434Z,64.90
2022-12-24T17:07:59.475Z,66.05
2022-12-24T17:10:42.776Z,65.55
2022-12-24T17:13:24.506Z,67.82
2022-12-24T17:16:15.340Z,68.18
2022-12-24T17:18:59.500Z,66.00
2022-12-24T17:21:41.975Z,66.30
2022-12-24T17:24:30.494Z,67.05
2022-12-24T17:27:19.694Z,67.38
2022-12-24T17:30:02.416Z,63.05
2022-12-24T17:32:51.918Z,61.78
2022-12-24T17:35:33.374Z,64.07
2022-12-24T17:38:22.433Z,65.70
2022-12-24T17:41:17.881Z,67.80
2022-12-24T17:44:06.373Z,63.45
2022-12-24T17:46:56.487Z,66.38
2022-12-24T17:49:38.810Z,62.47
2022-12-24T17:52:27.440Z,64.05
2022-12-24T17:55:17.771Z,62.78
2022-12-24T17:58:00.395Z,63.60
2022-12-24T18:00:50.828Z,62.85
2022-12-24T18:03:33.435Z,62.67
2022-12-24T18:06:22.756Z,62.88
2022-12-24T18:09:05.297Z,66.40
2022-12-24T18:11:47.688Z,63.42
2022-12-24T18:14:36.410Z,63.90
2022-12-24T18:17:18.810Z,60.47
2022-12-24T18:20:07.494Z,65.70
2022-12-24T18:22:50.621Z,63.60
2022-12-24T18:25:39.465Z,66.80
2022-12-24T18:28:28.300Z,64.53
2022-12-24T18:31:16.849Z,70.63
2022-12-24T18:34:05.403Z,62.85
2022-12-24T18:36:54.527Z,65.60
2022-12-24T18:39:44.369Z,64.35
2022-12-24T18:42:26.962Z,62.20
2022-12-24T18:45:15.476Z,63.30
2022-12-24T18:47:57.847Z,59.35
2022-12-24T18:50:48.447Z,61.20
2022-12-24T18:53:30.830Z,61.38
2022-12-24T18:56:22.511Z,61.85
2022-12-24T18:59:07.835Z,60.85
2022-12-24T19:01:56.620Z,64.38
2022-12-24T19:04:46.358Z,65.47
2022-12-24T19:07:35.974Z,63.33
2022-12-24T19:10:18.497Z,65.75
2022-12-24T19:13:07.474Z,66.75
2022-12-24T19:15:56.516Z,66.55
2022-12-24T19:18:45.453Z,66.72
2022-12-24T19:21:27.753Z,63.90
2022-12-24T19:24:18.307Z,67.18
2022-12-24T19:27:01.465Z,63.85
2022-12-24T19:29:50.447Z,68.88
2022-12-24T19:32:32.915Z,65.25
2022-12-24T19:35:21.357Z,68.72
2022-12-24T19:38:03.706Z,66.82
2022-12-24T19:40:52.373Z,67.90
2022-12-24T19:43:43.789Z,72.28
2022-12-24T19:46:37.280Z,70.10
2022-12-24T19:49:26.885Z,70.97
2022-12-24T19:52:08.499Z,71.60
2022-12-24T19:54:50.753Z,72.30
2022-12-24T19:57:39.446Z,72.22
2022-12-24T20:00:28.346Z,67.85
2022-12-24T20:03:10.880Z,67.50
2022-12-24T20:06:02.421Z,73.63
2022-12-24T20:08:46.698Z,69.03
2022-12-24T20:11:36.412Z,71.43
2022-12-24T20:14:19.796Z,71.22
2022-12-24T20:17:08.514Z,74.95
2022-12-24T20:19:50.689Z,73.28
2022-12-24T20:22:39.490Z,74.63
2022-12-24T20:25:21.901Z,72.40
2022-12-24T20:28:10.433Z,72.65
2022-12-24T20:30:59.365Z,72.22
2022-12-24T20:33:42.975Z,73.70
2022-12-24T20:36:33.375Z,72.88
2022-12-24T20:39:15.699Z,71.72
2022-12-24T20:42:04.518Z,73.22
2022-12-24T20:44:52.649Z,72.93
2022-12-24T20:47:35.397Z,71.78
2022-12-24T20:50:26.449Z,71.10
2022-12-24T20:53:09.479Z,71.85
2022-12-24T20:56:02.000Z,73.75
2022-12-24T20:58:43.498Z,69.90
2022-12-24T21:01:27.731Z,70.32
2022-12-24T21:04:18.328Z,66.90
2022-12-24T21:07:07.311Z,65.10
2022-12-24T21:09:49.687Z,65.68
2022-12-24T21:12:56.382Z,64.55
2022-12-24T21:15:48.180Z,64.78
2022-12-24T21:18:37.347Z,62.95
2022-12-24T21:21:19.734Z,64.32
2022-12-24T21:24:08.359Z,63.63
2022-12-24T21:26:50.770Z,62.38
2022-12-24T21:29:39.485Z,62.42
2022-12-24T21:32:28.372Z,64.35
2022-12-24T21:35:18.720Z,63.28
2022-12-24T21:38:01.440Z,62.53
2022-12-24T21:40:49.640Z,63.03
2022-12-24T21:43:39.271Z,64.50
2022-12-24T21:46:34.457Z,65.97
2022-12-24T21:49:34.672Z,66.15
2022-12-24T21:52:23.477Z,64.70
2022-12-24T21:55:12.753Z,63.45
2022-12-24T21:58:00.691Z,65.15
2022-12-24T22:00:43.598Z,63.58
2022-12-24T22:03:32.527Z,64.95
2022-12-24T22:06:34.469Z,65.10
2022-12-24T22:09:43.443Z,62.92
2022-12-24T22:12:33.151Z,64.78
2022-12-24T22:15:16.244Z,66.05
2022-12-24T22:18:04.704Z,66.95
2022-12-24T22:20:47.409Z,62.53
2022-12-24T22:23:41.885Z,62.17
2022-12-24T22:26:26.469Z,63.72
2022-12-24T22:29:15.794Z,62.92
2022-12-24T22:31:57.574Z,62.72
2022-12-24T22:34:47.503Z,60.35
2022-12-24T22:37:30.418Z,62.22
2022-12-24T22:40:19.702Z,66.32
2022-12-24T22:43:02.461Z,73.53
2022-12-24T22:45:58.397Z,78.03
2022-12-24T22:48:49.735Z,87.95
2022-12-24T22:51:32.363Z,96.32
2022-12-24T22:54:14.622Z,105.63
2022-12-24T22:57:03.363Z,108.15
2022-12-24T22:59:51.681Z,108.63
2022-12-24T23:02:35.475Z,108.35
2022-12-24T23:05:24.737Z,107.13
2022-12-24T23:08:07.383Z,111.75
2022-12-24T23:10:55.702Z,111.20
2022-12-24T23:13:56.379Z,106.72
2022-12-24T23:16:51.424Z,104.20
2022-12-24T23:19:41.413Z,107.25
2022-12-24T23:22:23.643Z,108.53
2022-12-24T23:25:12.372Z,112.20
2022-12-24T23:27:54.606Z,105.32
2022-12-24T23:30:43.368Z,103.68
2022-12-24T23:33:25.718Z,100.85
2022-12-24T23:36:15.449Z,99.90
2022-12-24T23:39:05.290Z,93.90
2022-12-24T23:41:54.441Z,85.70
2022-12-24T23:44:36.626Z,84.00
2022-12-24T23:47:26.360Z,84.07
2022-12-24T23:50:08.720Z,82.38
2022-12-24T23:52:57.388Z,80.60
2022-12-24T23:55:46.459Z,81.85
2022-12-24T23:58:36.713Z,85.82
